This is the latest recevied weather packets stored in our database for station/object NK7E-2. If no packets are shown the sender has not sent any weather packets the latest 10 day(s).
| Time | Temp. | Humidity | Pressure | Rain* | Wind** | Luminosity | Snow |
|---|---|---|---|---|---|---|---|
| 1777833317 | 26.67° C | 30% | 1023.6 hPa | 0 mm | - | - | - |
| 1777832718 | 26.67° C | 30% | 1023.9 hPa | 0 mm | - | - | - |
| 1777832117 | 26.67° C | 30% | 1024.2 hPa | 0 mm | - | - | - |
| 1777831517 | 26.67° C | 30% | 1024.5 hPa | 0 mm | - | - | - |
| 1777830917 | 26.67° C | 30% | 1024.6 hPa | 0 mm | - | - | - |
| 1777830317 | 26.67° C | 30% | 1024.7 hPa | 0 mm | - | - | - |
| 1777829717 | 26.67° C | 30% | 1024.6 hPa | 0 mm | - | - | - |
| 1777829117 | 26.11° C | 31% | 1024.6 hPa | 0 mm | - | - | - |
| 1777828517 | 26.67° C | 30% | 1024.9 hPa | 0 mm | - | - | - |
| 1777827917 | 26.11° C | 31% | 1024.6 hPa | 0 mm | - | - | - |
| 1777827317 | 26.11° C | 31% | 1024.5 hPa | 0 mm | - | - | - |
| 1777826717 | 26.11° C | 30% | 1024.8 hPa | 0 mm | - | - | - |
| 1777826117 | 25.56° C | 31% | 1024.8 hPa | 0 mm | - | - | - |
| 1777825517 | 25° C | 32% | 1024.3 hPa | 0 mm | - | - | - |
| 1777824917 | 24.44° C | 33% | 1024.2 hPa | 0 mm | - | - | - |
| 1777824317 | 24.44° C | 33% | 1024.4 hPa | 0 mm | - | - | - |
| 1777823717 | 24.44° C | 32% | 1024.4 hPa | 0 mm | - | - | - |
| 1777823117 | 24.44° C | 33% | 1024.5 hPa | 0 mm | - | - | - |
| 1777822517 | 23.89° C | 34% | 1024.4 hPa | 0 mm | - | - | - |
| 1777821917 | 23.89° C | 34% | 1024.5 hPa | 0 mm | - | - | - |
| 1777821317 | 23.89° C | 34% | 1024.4 hPa | 0 mm | - | - | - |
| 1777820717 | 23.33° C | 35% | 1024.3 hPa | 0 mm | - | - | - |
| 1777820117 | 22.22° C | 36% | 1023.9 hPa | 0 mm | - | - | - |
| 1777819517 | 21.67° C | 37% | 1023.8 hPa | 0 mm | - | - | - |
| 1777818917 | 21.11° C | 38% | 1023.9 hPa | 0 mm | - | - | - |
* Rain latest hour (hover to see other rain measurements)
** Current wind speed in m/s (hover to see current wind gust speed)